Allegheny County Airport
KAGC : now visible

Airfield :











YOU CAN JOIN US ON...

 
LOGIN :

Register | Disclaimer

   EN    FR    IT 

 









Legend :    VFR   Marginal VFR   IFR   Intensive IFR   Very Intensive IFR
Visi :
Ceiling :
>= 8 km
>= 3000ft
5 to 8 km
1000 to 3000 ft
1500m to 5 km
500 to 1000 ft
800 to 1500m
200 to 500 ft
< 800m
< 200 ft
Symbols :   Thunderstorms  Fog  Heavy snow  Heavy precipitations  Wind > 20 kt






- Airport Elevation : 1252 ft
- IATA code : AGC


KAGC - Allegheny County

CURRENT METAR :
  • 231753Z VRB05KT 10SM BKN055 24/12 A2998 RMK AO2 SLP147 T02440122 10256 20200 55003

EXPIRED METARs :
  • 231653Z 00000KT 10SM SCT050 26/13 A2998 RMK AO2 SLP145 T02560128
  • 231553Z 00000KT 10SM FEW041 24/13 A2998 RMK AO2 SLP150 T02390133
  • 231453Z 05005KT 10SM CLR 23/14 A2999 RMK AO2 SLP150 T02280144 50004
  • 231353Z 04003KT 10SM FEW020 22/16 A2999 RMK AO2 SLP150 T02220156

TAF KAGC
Valid from the 23 at 18:00 until the 24 at 18:00 UTC


231720Z 2318/2418 VRB04KT P6SM SCT050
FM241000 VRB02KT 2SM BR FEW050
FM241300 VRB02KT P6SM SCT050
KZOB FIR / North America



MET'MAP, your aeronautical weather chart ! - Copyright ORBIFLY December 2007 - Disclaimer

ORBIFLY MET'MAP TEAM :

Programming & Development : Alexandra Zaïnal
Original concept : Baudouin d'Aumeries
Technical & hardware support : Manuel Goepfert
Assistance : Marc-Olivier Méhu




SOURCES & CREDITS :

   NOAA       Earth
Advisory